sensor_id;sensor_type;location;lat;lon;timestamp;P1;durP1;ratioP1;P2;durP2;ratioP2
2544;SDS011;36212;48.838;9.142;2023-10-19T00:00:59;39.10;;;36.25;;
2544;SDS011;36212;48.838;9.142;2023-10-19T00:03:32;35.88;;;33.10;;
2544;SDS011;36212;48.838;9.142;2023-10-19T00:06:05;35.13;;;32.72;;
2544;SDS011;36212;48.838;9.142;2023-10-19T00:08:37;32.90;;;30.67;;
2544;SDS011;36212;48.838;9.142;2023-10-19T00:11:14;34.20;;;31.83;;
2544;SDS011;36212;48.838;9.142;2023-10-19T00:13:57;30.75;;;28.55;;
2544;SDS011;36212;48.838;9.142;2023-10-19T00:16:33;31.35;;;29.05;;
2544;SDS011;36212;48.838;9.142;2023-10-19T00:19:07;31.05;;;28.75;;
2544;SDS011;36212;48.838;9.142;2023-10-19T00:21:41;31.17;;;28.98;;
2544;SDS011;36212;48.838;9.142;2023-10-19T00:24:25;32.72;;;30.23;;
2544;SDS011;36212;48.838;9.142;2023-10-19T00:26:57;33.45;;;31.05;;
2544;SDS011;36212;48.838;9.142;2023-10-19T00:29:45;33.88;;;31.17;;
2544;SDS011;36212;48.838;9.142;2023-10-19T00:32:25;33.80;;;31.33;;
2544;SDS011;36212;48.838;9.142;2023-10-19T00:35:01;33.75;;;31.45;;
2544;SDS011;36212;48.838;9.142;2023-10-19T00:38:05;32.35;;;30.05;;
2544;SDS011;36212;48.838;9.142;2023-10-19T00:41:24;31.02;;;28.83;;
2544;SDS011;36212;48.838;9.142;2023-10-19T00:44:01;32.35;;;30.00;;
2544;SDS011;36212;48.838;9.142;2023-10-19T00:46:41;34.53;;;31.85;;
2544;SDS011;36212;48.838;9.142;2023-10-19T00:49:13;32.55;;;30.13;;
2544;SDS011;36212;48.838;9.142;2023-10-19T00:51:49;32.90;;;30.75;;
2544;SDS011;36212;48.838;9.142;2023-10-19T00:54:29;33.47;;;31.30;;
2544;SDS011;36212;48.838;9.142;2023-10-19T00:57:28;36.05;;;33.45;;
2544;SDS011;36212;48.838;9.142;2023-10-19T01:00:07;35.85;;;33.65;;
2544;SDS011;36212;48.838;9.142;2023-10-19T01:03:01;36.67;;;34.33;;
2544;SDS011;36212;48.838;9.142;2023-10-19T01:05:41;36.00;;;33.88;;
2544;SDS011;36212;48.838;9.142;2023-10-19T01:08:19;37.05;;;34.67;;
2544;SDS011;36212;48.838;9.142;2023-10-19T01:11:11;40.10;;;37.78;;
2544;SDS011;36212;48.838;9.142;2023-10-19T01:13:50;41.95;;;39.33;;
2544;SDS011;36212;48.838;9.142;2023-10-19T01:16:24;43.22;;;40.83;;
2544;SDS011;36212;48.838;9.142;2023-10-19T01:18:58;43.38;;;40.75;;
2544;SDS011;36212;48.838;9.142;2023-10-19T01:21:36;41.20;;;38.90;;
2544;SDS011;36212;48.838;9.142;2023-10-19T01:24:15;44.05;;;41.55;;
2544;SDS011;36212;48.838;9.142;2023-10-19T01:26:57;43.00;;;40.60;;
2544;SDS011;36212;48.838;9.142;2023-10-19T01:29:34;43.15;;;40.92;;
2544;SDS011;36212;48.838;9.142;2023-10-19T01:32:09;46.97;;;44.65;;
2544;SDS011;36212;48.838;9.142;2023-10-19T01:34:45;54.20;;;51.80;;
2544;SDS011;36212;48.838;9.142;2023-10-19T01:37:18;69.28;;;66.25;;
2544;SDS011;36212;48.838;9.142;2023-10-19T01:39:52;74.72;;;71.28;;
2544;SDS011;36212;48.838;9.142;2023-10-19T01:42:24;76.93;;;73.93;;
2544;SDS011;36212;48.838;9.142;2023-10-19T01:44:57;79.68;;;76.43;;
2544;SDS011;36212;48.838;9.142;2023-10-19T01:47:29;69.95;;;67.07;;
2544;SDS011;36212;48.838;9.142;2023-10-19T01:50:02;71.40;;;68.25;;
2544;SDS011;36212;48.838;9.142;2023-10-19T01:52:49;72.88;;;69.90;;
2544;SDS011;36212;48.838;9.142;2023-10-19T01:55:23;73.78;;;70.78;;
2544;SDS011;36212;48.838;9.142;2023-10-19T01:57:56;64.10;;;61.47;;
2544;SDS011;36212;48.838;9.142;2023-10-19T02:00:28;62.75;;;60.05;;
2544;SDS011;36212;48.838;9.142;2023-10-19T02:03:01;54.70;;;52.33;;
2544;SDS011;36212;48.838;9.142;2023-10-19T02:05:39;51.75;;;49.38;;
2544;SDS011;36212;48.838;9.142;2023-10-19T02:08:13;46.80;;;44.67;;
2544;SDS011;36212;48.838;9.142;2023-10-19T02:10:47;40.22;;;38.42;;
2544;SDS011;36212;48.838;9.142;2023-10-19T02:13:20;40.53;;;38.72;;
2544;SDS011;36212;48.838;9.142;2023-10-19T02:15:53;38.40;;;36.60;;
2544;SDS011;36212;48.838;9.142;2023-10-19T02:18:26;35.95;;;34.15;;
2544;SDS011;36212;48.838;9.142;2023-10-19T02:21:00;33.70;;;32.08;;
2544;SDS011;36212;48.838;9.142;2023-10-19T02:23:44;31.70;;;30.08;;
2544;SDS011;36212;48.838;9.142;2023-10-19T02:26:17;35.58;;;33.78;;
2544;SDS011;36212;48.838;9.142;2023-10-19T02:28:53;34.15;;;32.38;;
2544;SDS011;36212;48.838;9.142;2023-10-19T02:31:29;33.45;;;31.58;;
2544;SDS011;36212;48.838;9.142;2023-10-19T02:34:01;34.10;;;32.40;;
2544;SDS011;36212;48.838;9.142;2023-10-19T02:36:38;33.70;;;32.00;;
2544;SDS011;36212;48.838;9.142;2023-10-19T02:39:13;33.53;;;31.92;;
2544;SDS011;36212;48.838;9.142;2023-10-19T02:41:48;32.88;;;31.25;;
2544;SDS011;36212;48.838;9.142;2023-10-19T02:44:21;33.65;;;31.95;;
2544;SDS011;36212;48.838;9.142;2023-10-19T02:47:00;33.13;;;31.33;;
2544;SDS011;36212;48.838;9.142;2023-10-19T02:49:41;29.00;;;27.50;;
2544;SDS011;36212;48.838;9.142;2023-10-19T02:52:21;26.27;;;24.95;;
2544;SDS011;36212;48.838;9.142;2023-10-19T02:54:54;27.58;;;26.25;;
2544;SDS011;36212;48.838;9.142;2023-10-19T02:57:30;29.27;;;27.50;;
2544;SDS011;36212;48.838;9.142;2023-10-19T03:00:06;30.30;;;28.60;;
2544;SDS011;36212;48.838;9.142;2023-10-19T03:02:51;29.20;;;27.83;;
2544;SDS011;36212;48.838;9.142;2023-10-19T03:05:24;31.27;;;29.73;;
2544;SDS011;36212;48.838;9.142;2023-10-19T03:07:57;30.95;;;29.65;;
2544;SDS011;36212;48.838;9.142;2023-10-19T03:10:31;31.90;;;30.40;;
2544;SDS011;36212;48.838;9.142;2023-10-19T03:13:14;31.15;;;29.65;;
2544;SDS011;36212;48.838;9.142;2023-10-19T03:15:46;26.85;;;25.65;;
2544;SDS011;36212;48.838;9.142;2023-10-19T03:18:20;26.15;;;24.95;;
2544;SDS011;36212;48.838;9.142;2023-10-19T03:20:52;25.17;;;23.92;;
2544;SDS011;36212;48.838;9.142;2023-10-19T03:23:25;23.38;;;22.42;;
2544;SDS011;36212;48.838;9.142;2023-10-19T03:25:58;23.55;;;22.35;;
2544;SDS011;36212;48.838;9.142;2023-10-19T03:28:48;24.17;;;22.98;;
2544;SDS011;36212;48.838;9.142;2023-10-19T03:31:27;25.13;;;23.92;;
2544;SDS011;36212;48.838;9.142;2023-10-19T03:34:00;25.33;;;24.30;;
2544;SDS011;36212;48.838;9.142;2023-10-19T03:36:36;24.77;;;23.77;;
2544;SDS011;36212;48.838;9.142;2023-10-19T03:39:10;23.15;;;22.15;;
2544;SDS011;36212;48.838;9.142;2023-10-19T03:41:51;24.70;;;23.50;;
2544;SDS011;36212;48.838;9.142;2023-10-19T03:44:24;23.17;;;21.98;;
2544;SDS011;36212;48.838;9.142;2023-10-19T03:46:56;23.77;;;22.38;;
2544;SDS011;36212;48.838;9.142;2023-10-19T03:49:41;21.35;;;20.45;;
2544;SDS011;36212;48.838;9.142;2023-10-19T03:52:17;22.63;;;21.42;;
2544;SDS011;36212;48.838;9.142;2023-10-19T03:54:50;25.65;;;24.48;;
2544;SDS011;36212;48.838;9.142;2023-10-19T03:57:22;24.02;;;22.58;;
2544;SDS011;36212;48.838;9.142;2023-10-19T03:59:59;22.88;;;21.77;;
2544;SDS011;36212;48.838;9.142;2023-10-19T04:02:34;20.52;;;19.42;;
2544;SDS011;36212;48.838;9.142;2023-10-19T04:05:12;21.60;;;20.38;;
2544;SDS011;36212;48.838;9.142;2023-10-19T04:07:56;23.55;;;22.17;;
2544;SDS011;36212;48.838;9.142;2023-10-19T04:10:38;21.42;;;20.13;;
2544;SDS011;36212;48.838;9.142;2023-10-19T04:16:35;21.98;;;20.60;;
2544;SDS011;36212;48.838;9.142;2023-10-19T04:19:13;21.73;;;20.55;;
2544;SDS011;36212;48.838;9.142;2023-10-19T04:21:47;22.42;;;21.17;;
2544;SDS011;36212;48.838;9.142;2023-10-19T04:24:21;22.83;;;21.35;;
2544;SDS011;36212;48.838;9.142;2023-10-19T04:26:54;21.92;;;20.65;;
2544;SDS011;36212;48.838;9.142;2023-10-19T04:29:31;21.00;;;19.70;;
2544;SDS011;36212;48.838;9.142;2023-10-19T04:32:05;20.67;;;19.55;;
2544;SDS011;36212;48.838;9.142;2023-10-19T04:34:40;23.20;;;21.73;;
2544;SDS011;36212;48.838;9.142;2023-10-19T04:37:12;21.73;;;20.52;;
2544;SDS011;36212;48.838;9.142;2023-10-19T04:39:50;21.55;;;20.45;;
2544;SDS011;36212;48.838;9.142;2023-10-19T04:42:22;19.88;;;18.77;;
2544;SDS011;36212;48.838;9.142;2023-10-19T04:44:57;22.77;;;21.10;;
2544;SDS011;36212;48.838;9.142;2023-10-19T04:47:32;25.13;;;23.50;;
2544;SDS011;36212;48.838;9.142;2023-10-19T04:50:08;24.08;;;22.52;;
2544;SDS011;36212;48.838;9.142;2023-10-19T04:52:42;22.23;;;20.92;;
2544;SDS011;36212;48.838;9.142;2023-10-19T04:55:15;21.25;;;19.95;;
2544;SDS011;36212;48.838;9.142;2023-10-19T04:57:47;21.75;;;20.33;;
2544;SDS011;36212;48.838;9.142;2023-10-19T05:00:20;20.58;;;19.38;;
2544;SDS011;36212;48.838;9.142;2023-10-19T05:02:54;21.55;;;20.25;;
2544;SDS011;36212;48.838;9.142;2023-10-19T05:05:27;22.33;;;20.83;;
2544;SDS011;36212;48.838;9.142;2023-10-19T05:08:00;22.63;;;20.83;;
2544;SDS011;36212;48.838;9.142;2023-10-19T05:10:32;20.35;;;19.05;;
2544;SDS011;36212;48.838;9.142;2023-10-19T05:13:05;20.55;;;19.27;;
2544;SDS011;36212;48.838;9.142;2023-10-19T05:15:37;20.27;;;18.98;;
2544;SDS011;36212;48.838;9.142;2023-10-19T05:18:11;21.45;;;19.92;;
2544;SDS011;36212;48.838;9.142;2023-10-19T05:20:43;20.70;;;19.50;;
2544;SDS011;36212;48.838;9.142;2023-10-19T05:23:18;20.98;;;19.67;;
2544;SDS011;36212;48.838;9.142;2023-10-19T05:26:04;21.77;;;20.38;;
2544;SDS011;36212;48.838;9.142;2023-10-19T05:28:38;20.75;;;19.48;;
2544;SDS011;36212;48.838;9.142;2023-10-19T05:31:13;23.45;;;21.88;;
2544;SDS011;36212;48.838;9.142;2023-10-19T05:33:46;22.25;;;20.90;;
2544;SDS011;36212;48.838;9.142;2023-10-19T05:36:23;25.23;;;23.55;;
2544;SDS011;36212;48.838;9.142;2023-10-19T05:38:56;22.90;;;21.48;;
2544;SDS011;36212;48.838;9.142;2023-10-19T05:41:28;23.40;;;22.08;;
2544;SDS011;36212;48.838;9.142;2023-10-19T05:44:04;24.23;;;22.67;;
2544;SDS011;36212;48.838;9.142;2023-10-19T05:46:36;25.73;;;24.13;;
2544;SDS011;36212;48.838;9.142;2023-10-19T05:49:11;24.00;;;22.58;;
2544;SDS011;36212;48.838;9.142;2023-10-19T05:51:43;26.90;;;25.30;;
2544;SDS011;36212;48.838;9.142;2023-10-19T05:54:18;26.90;;;25.48;;
2544;SDS011;36212;48.838;9.142;2023-10-19T05:56:53;26.85;;;25.35;;
2544;SDS011;36212;48.838;9.142;2023-10-19T05:59:25;29.55;;;27.85;;
2544;SDS011;36212;48.838;9.142;2023-10-19T06:02:03;30.20;;;28.63;;
2544;SDS011;36212;48.838;9.142;2023-10-19T06:04:39;32.25;;;30.38;;
2544;SDS011;36212;48.838;9.142;2023-10-19T06:07:11;32.80;;;31.00;;
2544;SDS011;36212;48.838;9.142;2023-10-19T06:09:43;34.58;;;32.58;;
2544;SDS011;36212;48.838;9.142;2023-10-19T06:12:15;35.28;;;33.38;;
2544;SDS011;36212;48.838;9.142;2023-10-19T06:14:47;38.33;;;36.42;;
2544;SDS011;36212;48.838;9.142;2023-10-19T06:17:20;40.63;;;38.75;;
2544;SDS011;36212;48.838;9.142;2023-10-19T06:19:53;45.20;;;42.88;;
2544;SDS011;36212;48.838;9.142;2023-10-19T06:22:27;54.50;;;51.88;;
2544;SDS011;36212;48.838;9.142;2023-10-19T06:25:00;53.65;;;50.65;;
2544;SDS011;36212;48.838;9.142;2023-10-19T06:27:36;66.28;;;62.63;;
2544;SDS011;36212;48.838;9.142;2023-10-19T06:30:09;63.72;;;60.78;;
2544;SDS011;36212;48.838;9.142;2023-10-19T06:32:47;73.03;;;69.38;;
2544;SDS011;36212;48.838;9.142;2023-10-19T06:35:24;79.15;;;75.55;;
2544;SDS011;36212;48.838;9.142;2023-10-19T06:37:58;78.05;;;74.50;;
2544;SDS011;36212;48.838;9.142;2023-10-19T06:40:34;76.55;;;72.50;;
2544;SDS011;36212;48.838;9.142;2023-10-19T06:43:11;75.50;;;71.88;;
2544;SDS011;36212;48.838;9.142;2023-10-19T06:54:11;67.95;;;64.07;;
2544;SDS011;36212;48.838;9.142;2023-10-19T06:56:44;77.13;;;73.45;;
2544;SDS011;36212;48.838;9.142;2023-10-19T06:59:18;77.47;;;73.90;;
2544;SDS011;36212;48.838;9.142;2023-10-19T07:01:50;81.82;;;78.13;;
2544;SDS011;36212;48.838;9.142;2023-10-19T07:04:23;76.47;;;72.93;;
2544;SDS011;36212;48.838;9.142;2023-10-19T07:06:56;77.32;;;73.78;;
2544;SDS011;36212;48.838;9.142;2023-10-19T07:09:31;80.13;;;76.57;;
2544;SDS011;36212;48.838;9.142;2023-10-19T07:12:06;82.22;;;78.22;;
2544;SDS011;36212;48.838;9.142;2023-10-19T07:14:40;85.35;;;81.65;;
2544;SDS011;36212;48.838;9.142;2023-10-19T07:17:12;80.13;;;76.72;;
2544;SDS011;36212;48.838;9.142;2023-10-19T07:19:45;72.55;;;69.15;;
2544;SDS011;36212;48.838;9.142;2023-10-19T07:22:20;74.53;;;71.13;;
2544;SDS011;36212;48.838;9.142;2023-10-19T07:24:55;65.95;;;62.72;;
2544;SDS011;36212;48.838;9.142;2023-10-19T07:27:28;62.45;;;59.28;;
2544;SDS011;36212;48.838;9.142;2023-10-19T07:30:09;60.42;;;57.40;;
2544;SDS011;36212;48.838;9.142;2023-10-19T07:32:49;63.60;;;60.70;;
2544;SDS011;36212;48.838;9.142;2023-10-19T07:35:35;70.05;;;66.68;;
2544;SDS011;36212;48.838;9.142;2023-10-19T07:38:17;67.70;;;63.95;;
2544;SDS011;36212;48.838;9.142;2023-10-19T07:40:53;72.97;;;69.50;;
2544;SDS011;36212;48.838;9.142;2023-10-19T07:43:26;77.93;;;74.20;;
2544;SDS011;36212;48.838;9.142;2023-10-19T07:45:59;85.40;;;81.68;;
2544;SDS011;36212;48.838;9.142;2023-10-19T07:48:31;85.05;;;81.13;;
2544;SDS011;36212;48.838;9.142;2023-10-19T07:51:04;90.68;;;86.63;;
2544;SDS011;36212;48.838;9.142;2023-10-19T07:53:38;90.00;;;86.25;;
2544;SDS011;36212;48.838;9.142;2023-10-19T07:56:10;90.65;;;86.55;;
2544;SDS011;36212;48.838;9.142;2023-10-19T07:58:43;91.32;;;87.50;;
2544;SDS011;36212;48.838;9.142;2023-10-19T08:01:16;99.13;;;94.88;;
2544;SDS011;36212;48.838;9.142;2023-10-19T08:03:49;98.25;;;94.07;;
2544;SDS011;36212;48.838;9.142;2023-10-19T08:06:22;94.00;;;90.20;;
2544;SDS011;36212;48.838;9.142;2023-10-19T08:08:54;93.82;;;90.00;;
2544;SDS011;36212;48.838;9.142;2023-10-19T08:11:28;84.43;;;80.88;;
2544;SDS011;36212;48.838;9.142;2023-10-19T08:14:01;68.78;;;65.60;;
2544;SDS011;36212;48.838;9.142;2023-10-19T08:16:35;58.63;;;55.63;;
2544;SDS011;36212;48.838;9.142;2023-10-19T08:19:08;49.30;;;46.88;;
2544;SDS011;36212;48.838;9.142;2023-10-19T08:21:42;42.15;;;39.70;;
2544;SDS011;36212;48.838;9.142;2023-10-19T08:24:15;33.38;;;31.42;;
2544;SDS011;36212;48.838;9.142;2023-10-19T08:26:54;21.15;;;19.95;;
2544;SDS011;36212;48.838;9.142;2023-10-19T08:29:26;18.65;;;17.17;;
2544;SDS011;36212;48.838;9.142;2023-10-19T08:32:00;15.82;;;14.45;;
2544;SDS011;36212;48.838;9.142;2023-10-19T08:34:34;13.93;;;12.60;;
2544;SDS011;36212;48.838;9.142;2023-10-19T08:37:08;13.93;;;13.02;;
2544;SDS011;36212;48.838;9.142;2023-10-19T08:39:41;14.20;;;12.93;;
2544;SDS011;36212;48.838;9.142;2023-10-19T08:42:15;14.13;;;12.70;;
2544;SDS011;36212;48.838;9.142;2023-10-19T08:44:48;12.57;;;11.48;;
2544;SDS011;36212;48.838;9.142;2023-10-19T08:47:20;12.47;;;11.07;;
2544;SDS011;36212;48.838;9.142;2023-10-19T08:49:55;12.45;;;11.07;;
2544;SDS011;36212;48.838;9.142;2023-10-19T08:52:31;12.48;;;11.57;;
2544;SDS011;36212;48.838;9.142;2023-10-19T08:55:08;12.15;;;11.05;;
2544;SDS011;36212;48.838;9.142;2023-10-19T08:57:45;12.93;;;11.63;;
2544;SDS011;36212;48.838;9.142;2023-10-19T09:00:21;13.70;;;12.53;;
2544;SDS011;36212;48.838;9.142;2023-10-19T09:02:57;11.20;;;10.40;;
2544;SDS011;36212;48.838;9.142;2023-10-19T09:05:37;12.23;;;11.33;;
2544;SDS011;36212;48.838;9.142;2023-10-19T09:08:18;11.90;;;10.77;;
2544;SDS011;36212;48.838;9.142;2023-10-19T09:10:54;12.70;;;11.53;;
2544;SDS011;36212;48.838;9.142;2023-10-19T09:13:46;13.53;;;12.07;;
2544;SDS011;36212;48.838;9.142;2023-10-19T09:16:24;12.47;;;11.57;;
2544;SDS011;36212;48.838;9.142;2023-10-19T09:19:01;11.80;;;10.90;;
2544;SDS011;36212;48.838;9.142;2023-10-19T09:21:33;11.60;;;10.67;;
2544;SDS011;36212;48.838;9.142;2023-10-19T09:24:07;11.77;;;10.67;;
2544;SDS011;36212;48.838;9.142;2023-10-19T09:26:41;12.03;;;11.13;;
2544;SDS011;36212;48.838;9.142;2023-10-19T09:29:16;12.80;;;11.33;;
2544;SDS011;36212;48.838;9.142;2023-10-19T09:31:53;12.73;;;11.33;;
2544;SDS011;36212;48.838;9.142;2023-10-19T09:34:34;11.83;;;10.60;;
2544;SDS011;36212;48.838;9.142;2023-10-19T09:37:08;11.57;;;10.53;;
2544;SDS011;36212;48.838;9.142;2023-10-19T09:39:46;10.77;;;9.53;;
2544;SDS011;36212;48.838;9.142;2023-10-19T09:42:18;9.47;;;8.77;;
2544;SDS011;36212;48.838;9.142;2023-10-19T09:44:55;9.50;;;8.80;;
2544;SDS011;36212;48.838;9.142;2023-10-19T09:47:39;8.20;;;7.50;;
2544;SDS011;36212;48.838;9.142;2023-10-19T09:50:20;8.07;;;7.33;;
2544;SDS011;36212;48.838;9.142;2023-10-19T09:52:53;8.20;;;7.43;;
2544;SDS011;36212;48.838;9.142;2023-10-19T09:55:34;9.10;;;8.40;;
2544;SDS011;36212;48.838;9.142;2023-10-19T09:58:17;8.57;;;7.70;;
2544;SDS011;36212;48.838;9.142;2023-10-19T10:05:45;7.93;;;7.33;;
2544;SDS011;36212;48.838;9.142;2023-10-19T10:11:27;8.20;;;7.60;;
2544;SDS011;36212;48.838;9.142;2023-10-19T10:17:49;9.00;;;8.07;;
2544;SDS011;36212;48.838;9.142;2023-10-19T10:27:56;8.80;;;7.93;;
2544;SDS011;36212;48.838;9.142;2023-10-19T10:30:33;10.03;;;8.90;;
2544;SDS011;36212;48.838;9.142;2023-10-19T10:33:05;8.57;;;7.87;;
2544;SDS011;36212;48.838;9.142;2023-10-19T10:36:05;9.43;;;8.57;;
2544;SDS011;36212;48.838;9.142;2023-10-19T10:38:38;9.30;;;8.60;;
2544;SDS011;36212;48.838;9.142;2023-10-19T10:41:11;9.80;;;8.90;;
2544;SDS011;36212;48.838;9.142;2023-10-19T10:43:54;9.40;;;8.50;;
2544;SDS011;36212;48.838;9.142;2023-10-19T10:46:28;9.50;;;8.70;;
2544;SDS011;36212;48.838;9.142;2023-10-19T10:49:07;9.13;;;8.20;;
2544;SDS011;36212;48.838;9.142;2023-10-19T10:52:42;9.10;;;8.20;;
2544;SDS011;36212;48.838;9.142;2023-10-19T10:55:15;8.77;;;8.07;;
2544;SDS011;36212;48.838;9.142;2023-10-19T10:57:49;8.00;;;7.23;;
2544;SDS011;36212;48.838;9.142;2023-10-19T11:04:51;7.07;;;6.37;;
2544;SDS011;36212;48.838;9.142;2023-10-19T11:07:25;6.60;;;6.20;;
2544;SDS011;36212;48.838;9.142;2023-10-19T11:09:57;5.93;;;5.47;;
2544;SDS011;36212;48.838;9.142;2023-10-19T11:12:32;5.63;;;5.23;;
2544;SDS011;36212;48.838;9.142;2023-10-19T11:15:05;7.50;;;6.90;;
2544;SDS011;36212;48.838;9.142;2023-10-19T11:17:42;6.13;;;5.57;;
2544;SDS011;36212;48.838;9.142;2023-10-19T11:20:22;5.93;;;5.63;;
2544;SDS011;36212;48.838;9.142;2023-10-19T11:23:00;6.23;;;5.67;;
2544;SDS011;36212;48.838;9.142;2023-10-19T11:25:34;6.40;;;5.90;;
2544;SDS011;36212;48.838;9.142;2023-10-19T11:28:16;4.30;;;4.10;;
2544;SDS011;36212;48.838;9.142;2023-10-19T11:30:49;5.43;;;4.03;;
2544;SDS011;36212;48.838;9.142;2023-10-19T11:42:27;4.10;;;3.83;;
2544;SDS011;36212;48.838;9.142;2023-10-19T11:44:59;4.30;;;3.90;;
2544;SDS011;36212;48.838;9.142;2023-10-19T11:47:32;4.63;;;4.33;;
2544;SDS011;36212;48.838;9.142;2023-10-19T11:50:05;4.57;;;4.20;;
2544;SDS011;36212;48.838;9.142;2023-10-19T11:52:38;3.37;;;3.27;;
2544;SDS011;36212;48.838;9.142;2023-10-19T11:55:12;4.80;;;4.50;;
2544;SDS011;36212;48.838;9.142;2023-10-19T11:57:48;4.63;;;4.23;;
2544;SDS011;36212;48.838;9.142;2023-10-19T12:00:20;5.73;;;5.33;;
2544;SDS011;36212;48.838;9.142;2023-10-19T12:03:08;5.77;;;5.27;;
2544;SDS011;36212;48.838;9.142;2023-10-19T12:05:40;6.73;;;6.20;;
2544;SDS011;36212;48.838;9.142;2023-10-19T12:08:14;6.30;;;5.80;;
2544;SDS011;36212;48.838;9.142;2023-10-19T12:10:47;4.30;;;4.00;;
2544;SDS011;36212;48.838;9.142;2023-10-19T12:13:20;4.00;;;3.70;;
2544;SDS011;36212;48.838;9.142;2023-10-19T12:15:54;4.05;;;3.80;;
2544;SDS011;36212;48.838;9.142;2023-10-19T12:18:28;3.80;;;3.60;;
2544;SDS011;36212;48.838;9.142;2023-10-19T12:21:01;4.30;;;4.00;;
2544;SDS011;36212;48.838;9.142;2023-10-19T12:23:39;5.50;;;5.10;;
2544;SDS011;36212;48.838;9.142;2023-10-19T12:26:14;5.03;;;4.70;;
2544;SDS011;36212;48.838;9.142;2023-10-19T12:28:47;5.90;;;5.50;;
2544;SDS011;36212;48.838;9.142;2023-10-19T12:31:21;5.97;;;5.47;;
2544;SDS011;36212;48.838;9.142;2023-10-19T12:33:56;7.40;;;6.80;;
2544;SDS011;36212;48.838;9.142;2023-10-19T12:36:28;8.32;;;7.53;;
2544;SDS011;36212;48.838;9.142;2023-10-19T12:39:06;9.97;;;9.13;;
2544;SDS011;36212;48.838;9.142;2023-10-19T12:42:01;12.13;;;10.40;;
2544;SDS011;36212;48.838;9.142;2023-10-19T12:44:36;11.73;;;10.73;;
2544;SDS011;36212;48.838;9.142;2023-10-19T12:47:16;11.83;;;10.87;;
2544;SDS011;36212;48.838;9.142;2023-10-19T12:49:54;11.40;;;10.53;;
2544;SDS011;36212;48.838;9.142;2023-10-19T12:52:27;10.45;;;9.75;;
2544;SDS011;36212;48.838;9.142;2023-10-19T12:55:08;11.15;;;10.23;;
2544;SDS011;36212;48.838;9.142;2023-10-19T12:57:45;10.80;;;10.10;;
2544;SDS011;36212;48.838;9.142;2023-10-19T13:00:21;12.00;;;11.10;;
2544;SDS011;36212;48.838;9.142;2023-10-19T13:02:59;11.27;;;10.43;;
2544;SDS011;36212;48.838;9.142;2023-10-19T13:05:37;11.25;;;10.45;;
2544;SDS011;36212;48.838;9.142;2023-10-19T13:08:13;11.40;;;10.57;;
2544;SDS011;36212;48.838;9.142;2023-10-19T13:10:47;11.82;;;10.90;;
2544;SDS011;36212;48.838;9.142;2023-10-19T13:13:21;11.63;;;10.90;;
2544;SDS011;36212;48.838;9.142;2023-10-19T13:15:57;12.20;;;11.20;;
2544;SDS011;36212;48.838;9.142;2023-10-19T13:18:30;11.60;;;10.57;;
2544;SDS011;36212;48.838;9.142;2023-10-19T13:21:06;10.40;;;9.70;;
2544;SDS011;36212;48.838;9.142;2023-10-19T13:23:47;11.80;;;10.90;;
2544;SDS011;36212;48.838;9.142;2023-10-19T13:26:21;12.80;;;11.80;;
2544;SDS011;36212;48.838;9.142;2023-10-19T13:28:56;11.17;;;10.50;;
2544;SDS011;36212;48.838;9.142;2023-10-19T13:31:29;12.38;;;11.55;;
2544;SDS011;36212;48.838;9.142;2023-10-19T13:34:05;13.93;;;12.75;;
2544;SDS011;36212;48.838;9.142;2023-10-19T13:36:43;12.40;;;11.60;;
2544;SDS011;36212;48.838;9.142;2023-10-19T13:39:21;14.40;;;12.95;;
2544;SDS011;36212;48.838;9.142;2023-10-19T13:41:58;13.52;;;12.25;;
2544;SDS011;36212;48.838;9.142;2023-10-19T13:44:36;12.45;;;11.55;;
2544;SDS011;36212;48.838;9.142;2023-10-19T13:47:15;13.87;;;12.57;;
2544;SDS011;36212;48.838;9.142;2023-10-19T13:49:48;13.90;;;13.00;;
2544;SDS011;36212;48.838;9.142;2023-10-19T13:52:20;13.00;;;11.90;;
2544;SDS011;36212;48.838;9.142;2023-10-19T13:54:53;13.55;;;12.43;;
2544;SDS011;36212;48.838;9.142;2023-10-19T13:57:26;13.27;;;11.95;;
2544;SDS011;36212;48.838;9.142;2023-10-19T13:59:59;12.25;;;11.23;;
2544;SDS011;36212;48.838;9.142;2023-10-19T14:20:32;12.20;;;11.30;;
2544;SDS011;36212;48.838;9.142;2023-10-19T14:23:23;14.20;;;13.13;;
2544;SDS011;36212;48.838;9.142;2023-10-19T14:25:58;18.30;;;17.07;;
2544;SDS011;36212;48.838;9.142;2023-10-19T14:28:30;19.85;;;18.45;;
2544;SDS011;36212;48.838;9.142;2023-10-19T14:31:06;20.27;;;18.67;;
2544;SDS011;36212;48.838;9.142;2023-10-19T14:33:41;19.45;;;18.15;;
2544;SDS011;36212;48.838;9.142;2023-10-19T14:36:14;18.85;;;17.70;;
2544;SDS011;36212;48.838;9.142;2023-10-19T14:38:48;18.90;;;17.50;;
2544;SDS011;36212;48.838;9.142;2023-10-19T14:41:20;18.60;;;17.40;;
2544;SDS011;36212;48.838;9.142;2023-10-19T14:43:54;20.17;;;18.77;;
2544;SDS011;36212;48.838;9.142;2023-10-19T14:46:29;20.20;;;18.70;;
2544;SDS011;36212;48.838;9.142;2023-10-19T14:49:02;18.98;;;17.67;;
2544;SDS011;36212;48.838;9.142;2023-10-19T14:51:36;22.00;;;20.80;;
2544;SDS011;36212;48.838;9.142;2023-10-19T14:54:09;21.25;;;19.75;;
2544;SDS011;36212;48.838;9.142;2023-10-19T14:56:44;22.23;;;21.03;;
2544;SDS011;36212;48.838;9.142;2023-10-19T14:59:16;23.77;;;22.23;;
2544;SDS011;36212;48.838;9.142;2023-10-19T15:01:50;23.58;;;22.25;;
2544;SDS011;36212;48.838;9.142;2023-10-19T15:04:25;29.30;;;27.52;;
2544;SDS011;36212;48.838;9.142;2023-10-19T15:07:01;26.20;;;24.80;;
2544;SDS011;36212;48.838;9.142;2023-10-19T15:09:34;27.92;;;26.17;;
2544;SDS011;36212;48.838;9.142;2023-10-19T15:12:07;29.95;;;28.30;;
2544;SDS011;36212;48.838;9.142;2023-10-19T15:14:40;31.95;;;30.20;;
2544;SDS011;36212;48.838;9.142;2023-10-19T15:17:15;31.95;;;30.25;;
2544;SDS011;36212;48.838;9.142;2023-10-19T15:19:51;36.22;;;34.08;;
2544;SDS011;36212;48.838;9.142;2023-10-19T15:22:25;39.00;;;36.72;;
2544;SDS011;36212;48.838;9.142;2023-10-19T15:24:58;35.72;;;33.53;;
2544;SDS011;36212;48.838;9.142;2023-10-19T15:27:35;35.63;;;33.88;;
2544;SDS011;36212;48.838;9.142;2023-10-19T15:30:12;35.67;;;33.67;;
2544;SDS011;36212;48.838;9.142;2023-10-19T15:32:49;34.53;;;32.92;;
2544;SDS011;36212;48.838;9.142;2023-10-19T15:35:23;34.38;;;32.80;;
2544;SDS011;36212;48.838;9.142;2023-10-19T15:37:58;34.20;;;32.40;;
2544;SDS011;36212;48.838;9.142;2023-10-19T15:40:30;32.60;;;31.13;;
2544;SDS011;36212;48.838;9.142;2023-10-19T15:43:04;33.10;;;31.38;;
2544;SDS011;36212;48.838;9.142;2023-10-19T15:45:37;31.65;;;30.00;;
2544;SDS011;36212;48.838;9.142;2023-10-19T15:48:14;32.80;;;31.15;;
2544;SDS011;36212;48.838;9.142;2023-10-19T15:50:48;32.33;;;30.52;;
2544;SDS011;36212;48.838;9.142;2023-10-19T15:53:21;32.85;;;31.15;;
2544;SDS011;36212;48.838;9.142;2023-10-19T15:55:54;32.70;;;31.00;;
2544;SDS011;36212;48.838;9.142;2023-10-19T15:58:28;33.88;;;32.17;;
2544;SDS011;36212;48.838;9.142;2023-10-19T16:01:01;28.63;;;27.13;;
2544;SDS011;36212;48.838;9.142;2023-10-19T16:03:39;30.38;;;28.77;;
2544;SDS011;36212;48.838;9.142;2023-10-19T16:06:19;30.30;;;28.85;;
2544;SDS011;36212;48.838;9.142;2023-10-19T16:08:52;31.05;;;29.55;;
2544;SDS011;36212;48.838;9.142;2023-10-19T16:11:28;33.83;;;31.90;;
2544;SDS011;36212;48.838;9.142;2023-10-19T16:14:01;34.88;;;32.92;;
2544;SDS011;36212;48.838;9.142;2023-10-19T16:16:34;35.45;;;33.55;;
2544;SDS011;36212;48.838;9.142;2023-10-19T16:19:07;35.45;;;33.75;;
2544;SDS011;36212;48.838;9.142;2023-10-19T16:21:40;32.33;;;30.88;;
2544;SDS011;36212;48.838;9.142;2023-10-19T16:24:14;31.35;;;29.85;;
2544;SDS011;36212;48.838;9.142;2023-10-19T16:27:20;27.98;;;26.63;;
2544;SDS011;36212;48.838;9.142;2023-10-19T16:31:31;29.25;;;27.85;;
2544;SDS011;36212;48.838;9.142;2023-10-19T16:35:03;27.80;;;26.33;;